createdAt,value
2018-08-23T00:01:26.400Z,35.60
2018-08-23T00:03:56.258Z,33.03
2018-08-23T00:06:24.845Z,34.10
2018-08-23T00:08:53.681Z,33.63
2018-08-23T00:11:24.822Z,32.33
2018-08-23T00:13:53.534Z,32.70
2018-08-23T00:16:24.833Z,33.03
2018-08-23T00:18:53.484Z,35.07
2018-08-23T00:21:27.651Z,32.40
2018-08-23T00:24:13.737Z,33.43
2018-08-23T00:26:48.152Z,36.10
2018-08-23T00:29:26.366Z,33.97
2018-08-23T00:32:00.026Z,32.23
2018-08-23T00:34:30.778Z,33.17
2018-08-23T00:36:59.768Z,34.27
2018-08-23T00:39:29.149Z,34.30
2018-08-23T00:42:02.989Z,35.17
2018-08-23T00:44:41.749Z,33.40
2018-08-23T00:47:10.329Z,35.67
2018-08-23T00:49:39.009Z,35.57
2018-08-23T00:52:07.648Z,34.07
2018-08-23T00:54:36.338Z,33.50
2018-08-23T00:57:04.943Z,34.17
2018-08-23T00:59:33.566Z,33.57
2018-08-23T01:02:10.121Z,33.87
2018-08-23T01:04:43.310Z,33.93
2018-08-23T01:07:14.414Z,33.80
2018-08-23T01:09:46.303Z,34.13
2018-08-23T01:12:14.909Z,33.93
2018-08-23T01:14:43.528Z,34.23
2018-08-23T01:17:16.798Z,33.43
2018-08-23T01:19:50.759Z,32.70
2018-08-23T01:22:19.473Z,32.67
2018-08-23T01:24:50.166Z,32.30
2018-08-23T01:27:24.788Z,32.73
2018-08-23T01:29:53.836Z,32.13
2018-08-23T01:32:27.697Z,31.40
2018-08-23T01:34:56.373Z,31.60
2018-08-23T01:37:41.555Z,30.53
2018-08-23T01:40:11.101Z,30.43
2018-08-23T01:42:40.871Z,31.03
2018-08-23T01:45:10.485Z,31.23
2018-08-23T01:47:55.119Z,30.57
2018-08-23T01:50:24.344Z,29.90
2018-08-23T01:52:58.886Z,31.27
2018-08-23T01:55:27.526Z,31.50
2018-08-23T01:57:56.248Z,33.20
2018-08-23T02:00:28.066Z,32.20
2018-08-23T02:02:56.734Z,32.03
2018-08-23T02:05:25.370Z,30.73
2018-08-23T02:07:54.103Z,31.07
2018-08-23T02:10:22.815Z,32.30
2018-08-23T02:12:54.502Z,33.13
2018-08-23T02:15:23.299Z,31.63
2018-08-23T02:17:55.852Z,31.97
2018-08-23T02:20:25.583Z,31.83
2018-08-23T02:22:55.010Z,32.73
2018-08-23T02:25:23.868Z,31.87
2018-08-23T02:28:03.447Z,34.00
2018-08-23T02:30:45.492Z,34.33
2018-08-23T02:33:14.791Z,35.07
2018-08-23T02:35:55.459Z,33.43
2018-08-23T02:38:24.614Z,33.93
2018-08-23T02:40:53.244Z,35.50
2018-08-23T02:43:21.882Z,35.87
2018-08-23T02:45:51.790Z,34.63
2018-08-23T02:48:21.063Z,34.77
2018-08-23T02:50:50.368Z,35.17
2018-08-23T02:53:36.664Z,35.13
2018-08-23T02:56:07.354Z,35.73
2018-08-23T02:58:48.077Z,36.40
2018-08-23T03:01:17.161Z,37.37
2018-08-23T03:04:00.521Z,36.80
2018-08-23T03:06:34.548Z,36.77
2018-08-23T03:09:03.304Z,37.70
2018-08-23T03:11:32.102Z,36.03
2018-08-23T03:14:00.784Z,42.80
2018-08-23T03:16:39.427Z,39.73
2018-08-23T03:19:08.154Z,37.73
2018-08-23T03:21:36.852Z,39.27
2018-08-23T03:24:05.506Z,38.93
2018-08-23T03:26:34.157Z,40.07
2018-08-23T03:29:03.165Z,40.27
2018-08-23T03:31:31.807Z,39.77
2018-08-23T03:34:00.459Z,39.53
2018-08-23T03:36:29.099Z,40.03
2018-08-23T03:38:57.759Z,38.67
2018-08-23T03:41:26.381Z,38.93
2018-08-23T03:43:54.970Z,40.83
2018-08-23T03:46:23.638Z,40.07
2018-08-23T03:48:58.451Z,40.20
2018-08-23T03:51:27.178Z,40.43
2018-08-23T03:54:00.870Z,38.57
2018-08-23T03:56:29.514Z,39.60
2018-08-23T03:58:58.101Z,40.23
2018-08-23T04:01:26.754Z,39.40
2018-08-23T04:03:55.417Z,41.87
2018-08-23T04:06:32.264Z,39.47
2018-08-23T04:09:00.999Z,39.57
2018-08-23T04:11:29.692Z,39.37
2018-08-23T04:13:58.306Z,38.30
2018-08-23T04:16:28.921Z,38.47
2018-08-23T04:18:57.936Z,40.73
2018-08-23T04:21:27.432Z,40.40
2018-08-23T04:23:56.132Z,37.53
2018-08-23T04:26:25.908Z,38.87
2018-08-23T04:28:54.505Z,38.10
2018-08-23T04:31:23.119Z,39.70
2018-08-23T04:33:51.765Z,40.10
2018-08-23T04:36:32.189Z,39.13
2018-08-23T04:39:02.240Z,38.23
2018-08-23T04:41:32.125Z,39.67
2018-08-23T04:44:03.676Z,39.53
2018-08-23T04:46:33.875Z,39.63
2018-08-23T04:49:04.838Z,39.10
2018-08-23T04:51:33.875Z,36.60
2018-08-23T04:54:02.547Z,37.33
2018-08-23T04:56:31.598Z,37.77
2018-08-23T04:59:00.195Z,37.87
2018-08-23T05:01:28.743Z,37.27
2018-08-23T05:03:57.353Z,38.23
2018-08-23T05:06:25.990Z,37.30
2018-08-23T05:08:54.537Z,35.77
2018-08-23T05:11:23.097Z,36.57
2018-08-23T05:13:51.698Z,36.30
2018-08-23T05:16:20.242Z,36.27
2018-08-23T05:18:48.776Z,36.60
2018-08-23T05:21:17.332Z,36.33
2018-08-23T05:23:45.944Z,36.63
2018-08-23T05:26:16.466Z,35.87
2018-08-23T05:28:58.972Z,35.43
2018-08-23T05:31:28.752Z,36.07
2018-08-23T05:33:59.727Z,36.33
2018-08-23T05:36:28.338Z,34.57
2018-08-23T05:38:57.041Z,36.20
2018-08-23T05:41:25.635Z,35.30
2018-08-23T05:44:00.677Z,35.57
2018-08-23T05:46:29.949Z,36.97
2018-08-23T05:48:58.635Z,36.97
2018-08-23T05:51:27.358Z,36.33
2018-08-23T05:53:57.439Z,36.90
2018-08-23T05:56:26.101Z,35.43
2018-08-23T05:58:57.801Z,36.60
2018-08-23T06:01:26.394Z,35.57
2018-08-23T06:03:55.088Z,37.63
2018-08-23T06:06:23.733Z,37.73
2018-08-23T06:08:56.266Z,36.83
2018-08-23T06:11:24.924Z,36.47
2018-08-23T06:13:53.591Z,37.27
2018-08-23T06:16:22.686Z,36.03
2018-08-23T06:18:51.292Z,35.97
2018-08-23T06:21:20.008Z,35.70
2018-08-23T06:23:58.587Z,34.63
2018-08-23T06:26:32.618Z,34.23
2018-08-23T06:29:01.301Z,34.87
2018-08-23T06:31:30.007Z,34.07
2018-08-23T06:33:58.689Z,35.10
2018-08-23T06:36:27.258Z,33.97
2018-08-23T06:39:00.795Z,35.23
2018-08-23T06:41:29.787Z,35.23
2018-08-23T06:43:58.469Z,35.80
2018-08-23T06:46:27.142Z,35.33
2018-08-23T06:48:55.851Z,34.90
2018-08-23T06:51:24.473Z,35.80
2018-08-23T06:53:55.276Z,34.97
2018-08-23T06:56:23.928Z,35.00
2018-08-23T06:58:52.640Z,37.50
2018-08-23T07:01:33.745Z,38.13
2018-08-23T07:04:11.288Z,36.40
2018-08-23T07:06:40.005Z,40.03
2018-08-23T07:09:11.062Z,37.77
2018-08-23T07:11:39.773Z,37.80
2018-08-23T07:14:11.269Z,38.27
2018-08-23T07:16:40.552Z,39.33
2018-08-23T07:19:23.736Z,37.93
2018-08-23T07:21:53.089Z,36.90
2018-08-23T07:24:38.287Z,37.20
2018-08-23T07:27:09.344Z,36.97
2018-08-23T07:29:37.924Z,39.27
2018-08-23T07:32:07.912Z,41.60
2018-08-23T07:34:36.761Z,43.47
2018-08-23T07:37:11.635Z,43.63
2018-08-23T07:39:44.441Z,44.47
2018-08-23T07:42:13.683Z,43.00
2018-08-23T07:44:42.314Z,41.80
2018-08-23T07:47:10.910Z,43.23
2018-08-23T07:49:39.499Z,41.97
2018-08-23T07:52:08.118Z,41.57
2018-08-23T07:54:36.768Z,40.07
2018-08-23T07:57:05.390Z,39.83
2018-08-23T07:59:34.034Z,41.50
2018-08-23T08:02:02.748Z,42.07
2018-08-23T08:04:31.445Z,41.63
2018-08-23T08:17:32.348Z,43.30
2018-08-23T08:20:04.035Z,43.27
2018-08-23T08:22:32.768Z,42.23
2018-08-23T08:25:04.965Z,43.13
2018-08-23T08:27:33.618Z,42.43
2018-08-23T08:30:02.275Z,41.40
2018-08-23T08:32:30.933Z,42.07
2018-08-23T08:34:59.779Z,42.10
2018-08-23T08:37:28.910Z,40.83
2018-08-23T08:39:57.637Z,40.47
2018-08-23T08:42:31.037Z,42.00
2018-08-23T08:45:05.003Z,40.43
2018-08-23T08:47:33.724Z,39.57
2018-08-23T08:50:02.472Z,41.60
2018-08-23T08:52:31.285Z,39.03
2018-08-23T08:54:59.987Z,41.47
2018-08-23T08:57:31.416Z,38.63
2018-08-23T09:00:00.472Z,39.57
2018-08-23T09:02:31.706Z,39.10
2018-08-23T09:05:00.346Z,40.87
2018-08-23T09:07:30.678Z,39.70
2018-08-23T09:09:59.373Z,39.33
2018-08-23T09:12:30.359Z,40.73
2018-08-23T09:14:59.343Z,38.77
2018-08-23T09:17:40.328Z,37.83
2018-08-23T09:20:14.188Z,35.27
2018-08-23T09:22:50.788Z,35.43
2018-08-23T09:25:33.823Z,34.10
2018-08-23T09:28:02.530Z,34.07
2018-08-23T09:30:32.365Z,36.03
2018-08-23T09:33:06.242Z,35.53
2018-08-23T09:35:35.328Z,34.83
2018-08-23T09:38:12.429Z,36.20
2018-08-23T09:40:41.246Z,36.57
2018-08-23T09:43:10.049Z,35.70
2018-08-23T09:45:39.421Z,36.33
2018-08-23T09:48:08.274Z,35.57
2018-08-23T09:50:36.974Z,35.53
2018-08-23T09:53:11.775Z,35.03
2018-08-23T09:55:40.444Z,34.30
2018-08-23T09:58:14.445Z,34.53
2018-08-23T10:00:48.296Z,33.17
2018-08-23T10:03:22.312Z,31.63
2018-08-23T10:05:56.126Z,32.73
2018-08-23T10:08:29.977Z,30.63
2018-08-23T10:11:03.776Z,31.13
2018-08-23T10:13:37.830Z,30.07
2018-08-23T10:16:11.881Z,30.13
2018-08-23T10:18:45.732Z,28.23
2018-08-23T10:21:16.007Z,28.17
2018-08-23T10:23:44.605Z,28.83
2018-08-23T10:26:28.606Z,27.77
2018-08-23T10:28:57.816Z,27.53
2018-08-23T10:31:26.652Z,25.37
2018-08-23T10:33:55.341Z,24.57
2018-08-23T10:36:24.012Z,25.27
2018-08-23T10:38:52.640Z,26.00
2018-08-23T10:41:21.256Z,26.20
2018-08-23T10:43:49.920Z,25.07
2018-08-23T10:46:18.682Z,24.80
2018-08-23T10:48:48.756Z,24.03
2018-08-23T10:51:17.449Z,22.10
2018-08-23T10:53:46.106Z,24.03
2018-08-23T10:56:14.756Z,24.77
2018-08-23T10:58:43.434Z,23.07
2018-08-23T11:01:12.113Z,23.43
2018-08-23T11:03:40.749Z,23.53
2018-08-23T11:06:09.409Z,22.73
2018-08-23T11:08:38.767Z,24.57
2018-08-23T11:11:12.882Z,25.20
2018-08-23T11:13:47.710Z,24.00
2018-08-23T11:16:21.741Z,24.53
2018-08-23T11:18:56.266Z,23.53
2018-08-23T11:21:24.957Z,25.67
2018-08-23T11:23:53.560Z,25.90
2018-08-23T11:26:25.344Z,24.37
2018-08-23T11:28:54.343Z,25.43
2018-08-23T11:31:28.441Z,24.13
2018-08-23T11:33:57.070Z,24.97
2018-08-23T11:36:25.672Z,24.47
2018-08-23T11:38:54.326Z,24.90
2018-08-23T11:41:22.976Z,24.70
2018-08-23T11:43:51.543Z,22.13
2018-08-23T11:46:21.387Z,21.20
2018-08-23T11:48:50.355Z,20.27
2018-08-23T11:51:19.477Z,22.00
2018-08-23T11:53:48.257Z,22.20
2018-08-23T11:56:16.912Z,24.03
2018-08-23T11:58:45.474Z,23.37
2018-08-23T12:01:16.188Z,21.57
2018-08-23T12:03:45.296Z,22.33
2018-08-23T12:06:15.291Z,23.00
2018-08-23T12:08:44.206Z,22.40
2018-08-23T12:11:12.869Z,22.93
2018-08-23T12:13:50.400Z,22.17
2018-08-23T12:16:19.353Z,20.97
2018-08-23T12:18:48.131Z,22.33
2018-08-23T12:21:16.784Z,20.73
2018-08-23T12:23:45.480Z,22.10
2018-08-23T12:26:14.218Z,22.17
2018-08-23T12:28:48.257Z,22.60
2018-08-23T12:31:16.942Z,21.97
2018-08-23T12:33:45.576Z,22.30
2018-08-23T12:36:18.335Z,21.90
2018-08-23T12:38:52.481Z,20.57
2018-08-23T12:41:26.479Z,20.77
2018-08-23T12:43:55.166Z,20.67
2018-08-23T12:46:24.032Z,20.87
2018-08-23T12:48:58.647Z,21.30
2018-08-23T12:51:27.274Z,22.33
2018-08-23T12:53:55.972Z,20.90
2018-08-23T12:56:24.652Z,19.53
2018-08-23T12:58:53.317Z,20.30
2018-08-23T13:01:21.879Z,19.07
2018-08-23T13:03:50.618Z,20.20
2018-08-23T13:06:19.233Z,18.93
2018-08-23T13:08:47.885Z,19.17
2018-08-23T13:11:16.565Z,19.60
2018-08-23T13:13:45.545Z,19.53
2018-08-23T13:16:14.105Z,20.10
2018-08-23T13:18:42.826Z,17.93
2018-08-23T13:21:11.459Z,17.73
2018-08-23T13:23:44.227Z,19.67
2018-08-23T13:26:12.939Z,18.47
2018-08-23T13:28:41.552Z,19.27
2018-08-23T13:31:10.139Z,17.53
2018-08-23T13:33:38.846Z,19.87
2018-08-23T13:36:07.483Z,21.57
2018-08-23T13:38:36.103Z,19.97
2018-08-23T13:41:04.756Z,19.33
2018-08-23T13:43:33.421Z,20.93
2018-08-23T13:46:01.983Z,19.33
2018-08-23T13:48:30.620Z,19.87
2018-08-23T13:50:59.171Z,19.30
2018-08-23T13:53:27.795Z,19.40
2018-08-23T13:55:56.449Z,19.17
2018-08-23T13:58:25.133Z,20.23
2018-08-23T14:00:53.859Z,20.97
2018-08-23T14:03:22.443Z,20.30
2018-08-23T14:05:51.024Z,19.53
2018-08-23T14:08:19.666Z,18.27
2018-08-23T14:10:48.352Z,18.20
2018-08-23T14:13:17.138Z,17.47
2018-08-23T14:15:51.000Z,16.60
2018-08-23T14:18:20.050Z,17.33
2018-08-23T14:20:48.684Z,16.57
2018-08-23T14:23:17.296Z,17.27
2018-08-23T14:25:45.967Z,16.40
2018-08-23T14:28:14.547Z,17.37
2018-08-23T14:30:43.238Z,16.70
2018-08-23T14:33:12.012Z,17.07
2018-08-23T14:35:40.602Z,16.33
2018-08-23T14:38:09.173Z,15.67
2018-08-23T14:40:37.839Z,14.57
2018-08-23T14:43:06.421Z,15.17
2018-08-23T14:45:35.143Z,14.30
2018-08-23T14:48:09.216Z,16.23
2018-08-23T14:50:37.887Z,16.13
2018-08-23T14:53:07.005Z,15.37
2018-08-23T14:55:40.842Z,14.43
2018-08-23T14:58:10.451Z,14.00
2018-08-23T15:00:39.106Z,13.43
2018-08-23T15:03:07.888Z,13.73
2018-08-23T15:05:36.468Z,14.60
2018-08-23T15:08:05.372Z,14.53
2018-08-23T15:10:34.274Z,13.23
2018-08-23T15:13:02.970Z,13.90
2018-08-23T15:15:36.794Z,13.53
2018-08-23T15:18:05.623Z,12.40
2018-08-23T15:20:34.226Z,12.87
2018-08-23T15:23:02.875Z,13.60
2018-08-23T15:25:31.481Z,12.83
2018-08-23T15:28:00.183Z,12.83
2018-08-23T15:30:28.999Z,12.70
2018-08-23T15:32:57.645Z,12.30
2018-08-23T15:35:26.318Z,12.90
2018-08-23T15:37:55.035Z,12.20
2018-08-23T15:40:23.761Z,11.63
2018-08-23T15:42:52.412Z,10.70
2018-08-23T15:45:21.356Z,10.40
2018-08-23T15:47:50.487Z,10.67
2018-08-23T15:50:22.218Z,10.40
2018-08-23T15:52:51.439Z,10.00
2018-08-23T15:55:20.607Z,8.47
2018-08-23T15:57:49.152Z,8.23
2018-08-23T16:00:18.000Z,9.50
2018-08-23T16:02:47.373Z,9.70
2018-08-23T16:05:16.012Z,9.00
2018-08-23T16:07:44.694Z,9.40
2018-08-23T16:10:13.509Z,8.57
2018-08-23T16:12:42.237Z,8.23
2018-08-23T16:15:16.217Z,7.83
2018-08-23T16:17:50.068Z,8.33
2018-08-23T16:20:23.976Z,8.00
2018-08-23T16:22:52.641Z,8.43
2018-08-23T16:25:21.230Z,7.50
2018-08-23T16:27:50.992Z,7.63
2018-08-23T16:30:19.636Z,7.70
2018-08-23T16:32:48.378Z,7.70
2018-08-23T16:35:17.363Z,7.07
2018-08-23T16:37:45.939Z,6.90
2018-08-23T16:40:20.665Z,7.07
2018-08-23T16:42:49.347Z,6.50
2018-08-23T16:45:17.964Z,6.43
2018-08-23T16:47:46.610Z,5.87
2018-08-23T16:50:15.216Z,6.23
2018-08-23T16:52:43.810Z,5.63
2018-08-23T16:55:12.435Z,6.53
2018-08-23T16:57:41.177Z,5.20
2018-08-23T17:00:09.895Z,5.50
2018-08-23T17:02:38.679Z,5.63
2018-08-23T17:05:07.340Z,4.97
2018-08-23T17:07:36.012Z,4.70
2018-08-23T17:10:04.624Z,4.80
2018-08-23T17:12:33.224Z,4.67
2018-08-23T17:15:01.853Z,5.47
2018-08-23T17:17:33.966Z,5.47
2018-08-23T17:20:02.828Z,5.50
2018-08-23T17:22:31.676Z,5.70
2018-08-23T17:25:00.478Z,6.43
2018-08-23T17:27:29.102Z,5.83
2018-08-23T17:29:57.712Z,6.10
2018-08-23T17:32:26.335Z,5.60
2018-08-23T17:34:54.958Z,5.80
2018-08-23T17:37:23.609Z,5.20
2018-08-23T17:39:52.211Z,4.97
2018-08-23T17:42:24.727Z,4.80
2018-08-23T17:44:53.337Z,4.83
2018-08-23T17:47:21.951Z,4.60
2018-08-23T17:49:50.593Z,4.70
2018-08-23T17:52:19.141Z,4.33
2018-08-23T17:54:47.794Z,4.47
2018-08-23T17:57:16.402Z,4.23
2018-08-23T17:59:45.036Z,4.43
2018-08-23T18:02:13.656Z,3.67
2018-08-23T18:04:42.364Z,4.37
2018-08-23T18:07:10.984Z,3.80
2018-08-23T18:09:39.570Z,3.80
2018-08-23T18:12:08.349Z,4.17
2018-08-23T18:14:37.010Z,3.83
2018-08-23T18:17:05.614Z,3.90
2018-08-23T18:19:34.273Z,4.30
2018-08-23T18:22:02.827Z,4.10
2018-08-23T18:24:31.499Z,4.07
2018-08-23T18:27:00.113Z,4.20
2018-08-23T18:29:28.695Z,4.33
2018-08-23T18:31:57.342Z,3.83
2018-08-23T18:34:25.919Z,3.90
2018-08-23T18:36:54.527Z,4.40
2018-08-23T18:39:23.163Z,4.20
2018-08-23T18:41:51.749Z,4.30
2018-08-23T18:44:20.376Z,4.17
2018-08-23T18:46:49.037Z,4.40
2018-08-23T18:49:17.665Z,4.63
2018-08-23T18:51:46.372Z,4.60
2018-08-23T18:54:15.304Z,4.20
2018-08-23T18:56:43.966Z,3.93
2018-08-23T18:59:12.728Z,4.20
2018-08-23T19:01:41.653Z,4.40
2018-08-23T19:04:10.379Z,4.03
2018-08-23T19:06:39.391Z,4.03
2018-08-23T19:09:11.505Z,4.30
2018-08-23T19:11:40.196Z,4.23
2018-08-23T19:14:12.831Z,4.70
2018-08-23T19:16:46.644Z,4.60
2018-08-23T19:19:15.262Z,4.20
2018-08-23T19:21:43.864Z,4.10
2018-08-23T19:24:12.496Z,4.40
2018-08-23T19:26:41.179Z,4.20
2018-08-23T19:29:10.058Z,3.80
2018-08-23T19:31:38.741Z,4.13
2018-08-23T19:34:07.288Z,3.87
2018-08-23T19:36:35.894Z,3.77
2018-08-23T19:39:08.444Z,4.20
2018-08-23T19:41:37.170Z,4.00
2018-08-23T19:44:06.046Z,4.00
2018-08-23T19:46:39.836Z,3.97
2018-08-23T19:49:13.687Z,4.20
2018-08-23T19:51:42.366Z,4.93
2018-08-23T19:54:11.020Z,4.23
2018-08-23T19:56:39.676Z,4.30
2018-08-23T19:59:08.247Z,4.23
2018-08-23T20:01:36.860Z,4.50
2018-08-23T20:04:05.540Z,4.10
2018-08-23T20:06:34.270Z,4.20
2018-08-23T20:09:02.867Z,3.87
2018-08-23T20:11:31.545Z,4.60
2018-08-23T20:14:00.152Z,4.20
2018-08-23T20:16:28.756Z,4.17
2018-08-23T20:18:57.366Z,4.27
2018-08-23T20:21:25.949Z,4.50
2018-08-23T20:23:54.582Z,4.23
2018-08-23T20:26:23.228Z,4.20
2018-08-23T20:28:51.826Z,4.23
2018-08-23T20:31:22.165Z,4.33
2018-08-23T20:33:50.787Z,4.97
2018-08-23T20:36:19.403Z,4.53
2018-08-23T20:38:48.793Z,5.17
2018-08-23T20:41:17.385Z,4.90
2018-08-23T20:43:45.983Z,5.10
2018-08-23T20:46:14.497Z,4.80
2018-08-23T20:48:43.058Z,5.00
2018-08-23T20:51:11.651Z,4.17
2018-08-23T20:53:40.218Z,4.80
2018-08-23T20:56:08.873Z,3.80
2018-08-23T20:58:37.494Z,3.87
2018-08-23T21:01:06.178Z,4.50
2018-08-23T21:03:34.766Z,3.80
2018-08-23T21:06:03.360Z,4.10
2018-08-23T21:08:31.946Z,4.77
2018-08-23T21:11:00.580Z,5.00
2018-08-23T21:13:29.260Z,5.27
2018-08-23T21:15:57.897Z,6.17
2018-08-23T21:18:26.488Z,5.50
2018-08-23T21:20:55.117Z,7.27
2018-08-23T21:23:23.692Z,6.30
2018-08-23T21:25:52.306Z,6.33
2018-08-23T21:28:20.935Z,7.40
2018-08-23T21:30:49.607Z,5.43
2018-08-23T21:33:18.259Z,4.40
2018-08-23T21:35:46.980Z,4.50
2018-08-23T21:38:15.594Z,4.60
2018-08-23T21:40:44.179Z,4.47
2018-08-23T21:43:12.762Z,4.80
2018-08-23T21:45:41.726Z,4.70
2018-08-23T21:48:10.246Z,4.70
2018-08-23T21:50:38.888Z,4.90
2018-08-23T21:53:07.495Z,5.00
2018-08-23T21:55:38.078Z,5.37
2018-08-23T21:58:08.431Z,5.10
2018-08-23T22:00:42.344Z,5.80
2018-08-23T22:03:12.082Z,6.00
2018-08-23T22:05:41.343Z,5.77
2018-08-23T22:08:10.109Z,6.17
2018-08-23T22:10:38.751Z,6.30
2018-08-23T22:13:07.717Z,6.97
2018-08-23T22:15:40.489Z,7.60
2018-08-23T22:18:09.101Z,7.43
2018-08-23T22:20:37.796Z,7.43
2018-08-23T22:23:06.415Z,8.30
2018-08-23T22:25:35.047Z,8.43
2018-08-23T22:28:03.761Z,8.87
2018-08-23T22:30:32.387Z,9.17
2018-08-23T22:33:01.036Z,9.20
2018-08-23T22:35:29.664Z,9.23
2018-08-23T22:37:58.343Z,10.63
2018-08-23T22:40:26.990Z,10.33
2018-08-23T22:42:55.616Z,10.30
2018-08-23T22:45:24.230Z,10.80
2018-08-23T22:47:52.864Z,11.70
2018-08-23T22:50:21.602Z,12.30
2018-08-23T22:52:50.419Z,12.83
2018-08-23T22:55:19.044Z,12.17
2018-08-23T22:57:47.732Z,12.90
2018-08-23T23:00:16.480Z,12.87
2018-08-23T23:02:45.081Z,12.63
2018-08-23T23:05:13.745Z,13.33
2018-08-23T23:07:42.355Z,13.27
2018-08-23T23:10:11.021Z,14.23
2018-08-23T23:12:39.657Z,14.17
2018-08-23T23:15:13.775Z,13.50
2018-08-23T23:17:42.517Z,13.50
2018-08-23T23:20:11.139Z,13.90
2018-08-23T23:22:39.835Z,13.40
2018-08-23T23:25:08.507Z,13.03
2018-08-23T23:27:37.171Z,13.03
2018-08-23T23:30:06.652Z,13.33
2018-08-23T23:32:35.358Z,12.93
2018-08-23T23:35:04.135Z,13.30
2018-08-23T23:37:32.928Z,13.40
2018-08-23T23:40:01.574Z,12.83
2018-08-23T23:42:30.300Z,13.17
2018-08-23T23:44:59.197Z,12.83
2018-08-23T23:47:27.751Z,13.37
2018-08-23T23:49:56.724Z,12.73
2018-08-23T23:52:25.514Z,12.73
2018-08-23T23:54:54.247Z,12.47
2018-08-23T23:57:22.906Z,13.13
2018-08-23T23:59:51.591Z,12.83
